createdAt,value
2022-10-17T00:01:33.101Z,100.00
2022-10-17T00:03:36.490Z,100.00
2022-10-17T00:05:40.139Z,100.00
2022-10-17T00:07:41.718Z,100.00
2022-10-17T00:09:44.048Z,100.00
2022-10-17T00:11:45.570Z,100.00
2022-10-17T00:13:50.797Z,100.00
2022-10-17T00:15:52.731Z,100.00
2022-10-17T00:17:54.316Z,100.00
2022-10-17T00:19:58.134Z,100.00
2022-10-17T00:21:59.729Z,100.00
2022-10-17T00:24:01.964Z,100.00
2022-10-17T00:26:09.346Z,100.00
2022-10-17T00:28:11.300Z,100.00
2022-10-17T00:30:15.604Z,100.00
2022-10-17T00:32:17.626Z,100.00
2022-10-17T00:34:19.201Z,100.00
2022-10-17T00:36:22.944Z,100.00
2022-10-17T00:38:24.460Z,100.00
2022-10-17T00:40:26.045Z,100.00
2022-10-17T00:42:28.468Z,100.00
2022-10-17T00:45:10.164Z,100.00
2022-10-17T00:47:16.319Z,100.00
2022-10-17T00:49:18.541Z,100.00
2022-10-17T00:51:25.610Z,100.00
2022-10-17T00:53:27.177Z,100.00
2022-10-17T00:55:33.022Z,100.00
2022-10-17T00:57:34.831Z,100.00
2022-10-17T00:59:40.103Z,100.00
2022-10-17T01:01:46.989Z,100.00
2022-10-17T01:03:49.931Z,100.00
2022-10-17T01:05:51.951Z,100.00
2022-10-17T01:07:54.457Z,100.00
2022-10-17T01:09:56.664Z,100.00
2022-10-17T01:12:07.410Z,100.00
2022-10-17T01:14:16.168Z,100.00
2022-10-17T01:16:23.596Z,100.00
2022-10-17T01:18:37.124Z,100.00
2022-10-17T01:21:20.831Z,100.00
2022-10-17T01:23:38.704Z,100.00
2022-10-17T01:25:52.442Z,100.00
2022-10-17T01:28:10.311Z,100.00
2022-10-17T01:30:50.569Z,100.00
2022-10-17T01:32:57.879Z,100.00
2022-10-17T01:35:09.775Z,100.00
2022-10-17T01:37:20.472Z,100.00
2022-10-17T01:39:32.511Z,100.00
2022-10-17T01:41:41.587Z,100.00
2022-10-17T01:43:51.722Z,100.00
2022-10-17T01:45:58.325Z,100.00
2022-10-17T01:48:08.068Z,100.00
2022-10-17T01:50:16.841Z,100.00
2022-10-17T01:52:21.907Z,100.00
2022-10-17T01:54:27.908Z,100.00
2022-10-17T01:56:32.540Z,100.00
2022-10-17T01:58:38.278Z,100.00
2022-10-17T02:00:45.534Z,100.00
2022-10-17T02:02:54.337Z,100.00
2022-10-17T02:04:58.038Z,100.00
2022-10-17T02:07:06.698Z,100.00
2022-10-17T02:09:21.560Z,100.00
2022-10-17T02:11:25.869Z,100.00
2022-10-17T02:13:42.820Z,100.00
2022-10-17T02:16:07.182Z,100.00
2022-10-17T02:18:22.965Z,100.00
2022-10-17T02:20:32.124Z,100.00
2022-10-17T02:22:40.331Z,100.00
2022-10-17T02:24:49.689Z,100.00
2022-10-17T02:27:04.103Z,100.00
2022-10-17T02:29:10.688Z,100.00
2022-10-17T02:31:17.373Z,100.00
2022-10-17T02:33:23.284Z,100.00
2022-10-17T02:35:31.227Z,100.00
2022-10-17T02:37:34.022Z,100.00
2022-10-17T02:39:38.043Z,100.00
2022-10-17T02:41:40.931Z,100.00
2022-10-17T02:43:43.858Z,100.00
2022-10-17T02:45:46.610Z,100.00
2022-10-17T02:47:55.623Z,100.00
2022-10-17T02:49:58.171Z,100.00
2022-10-17T02:52:08.134Z,100.00
2022-10-17T02:54:17.690Z,100.00
2022-10-17T02:56:21.082Z,100.00
2022-10-17T02:58:28.171Z,100.00
2022-10-17T03:00:31.033Z,100.00
2022-10-17T03:02:40.078Z,100.00
2022-10-17T03:04:43.158Z,100.00
2022-10-17T03:06:46.578Z,100.00
2022-10-17T03:08:49.432Z,100.00
2022-10-17T03:10:51.406Z,100.00
2022-10-17T03:12:53.000Z,100.00
2022-10-17T03:14:54.482Z,100.00
2022-10-17T03:16:56.004Z,100.00
2022-10-17T03:19:00.525Z,100.00
2022-10-17T03:21:02.001Z,100.00
2022-10-17T03:23:03.692Z,100.00
2022-10-17T03:25:07.424Z,100.00
2022-10-17T03:27:08.989Z,100.00
2022-10-17T03:29:10.492Z,100.00
2022-10-17T03:31:15.998Z,100.00
2022-10-17T03:33:17.510Z,100.00
2022-10-17T03:35:19.024Z,100.00
2022-10-17T03:37:20.550Z,100.00
2022-10-17T03:39:22.190Z,100.00
2022-10-17T03:41:25.124Z,100.00
2022-10-17T03:43:26.629Z,100.00
2022-10-17T03:45:28.137Z,100.00
2022-10-17T03:47:29.811Z,100.00
2022-10-17T03:49:31.658Z,100.00
2022-10-17T03:51:33.272Z,100.00
2022-10-17T03:53:35.039Z,100.00
2022-10-17T03:55:36.559Z,100.00
2022-10-17T03:57:41.162Z,100.00
2022-10-17T03:59:45.013Z,100.00
2022-10-17T04:01:47.074Z,100.00
2022-10-17T04:03:49.690Z,100.00
2022-10-17T04:05:53.196Z,100.00
2022-10-17T04:07:54.756Z,100.00
2022-10-17T04:09:56.396Z,100.00
2022-10-17T04:11:57.944Z,100.00
2022-10-17T04:14:00.856Z,100.00
2022-10-17T04:16:04.997Z,100.00
2022-10-17T04:18:06.518Z,100.00
2022-10-17T04:20:08.900Z,100.00
2022-10-17T04:22:10.379Z,100.00
2022-10-17T04:24:12.360Z,100.00
2022-10-17T04:26:14.189Z,100.00
2022-10-17T04:28:15.930Z,100.00
2022-10-17T04:30:18.855Z,100.00
2022-10-17T04:32:20.421Z,100.00
2022-10-17T04:34:22.074Z,100.00
2022-10-17T04:36:23.519Z,100.00
2022-10-17T04:38:28.433Z,100.00
2022-10-17T04:40:30.286Z,100.00
2022-10-17T04:42:32.068Z,100.00
2022-10-17T04:44:33.859Z,100.00
2022-10-17T04:46:36.680Z,100.00
2022-10-17T04:48:38.979Z,100.00
2022-10-17T04:50:40.543Z,100.00
2022-10-17T04:52:42.087Z,100.00
2022-10-17T04:54:43.634Z,100.00
2022-10-17T04:56:45.149Z,100.00
2022-10-17T04:58:47.680Z,100.00
2022-10-17T05:00:49.366Z,100.00
2022-10-17T05:02:53.639Z,100.00
2022-10-17T05:04:55.132Z,100.00
2022-10-17T05:06:56.656Z,100.00
2022-10-17T05:08:58.309Z,100.00
2022-10-17T05:13:06.471Z,100.00
2022-10-17T05:15:08.960Z,100.00
2022-10-17T05:17:10.478Z,100.00
2022-10-17T05:19:13.505Z,100.00
2022-10-17T05:21:15.066Z,100.00
2022-10-17T05:23:16.588Z,100.00
2022-10-17T05:25:18.211Z,100.00
2022-10-17T05:27:19.903Z,100.00
2022-10-17T05:29:21.764Z,100.00
2022-10-17T05:31:23.278Z,100.00
2022-10-17T05:33:24.969Z,100.00
2022-10-17T05:35:28.080Z,100.00
2022-10-17T05:37:30.268Z,100.00
2022-10-17T05:39:31.857Z,100.00
2022-10-17T05:41:33.331Z,100.00
2022-10-17T05:43:34.950Z,100.00
2022-10-17T05:45:36.576Z,100.00
2022-10-17T05:47:38.048Z,100.00
2022-10-17T05:49:46.361Z,100.00
2022-10-17T05:51:51.356Z,100.00
2022-10-17T05:53:52.804Z,100.00
2022-10-17T05:55:58.637Z,100.00
2022-10-17T05:58:00.761Z,100.00
2022-10-17T06:00:02.428Z,100.00
2022-10-17T06:02:04.059Z,100.00
2022-10-17T06:04:05.607Z,100.00
2022-10-17T06:06:09.251Z,100.00
2022-10-17T06:08:12.065Z,100.00
2022-10-17T06:10:13.767Z,100.00
2022-10-17T06:12:15.246Z,100.00
2022-10-17T06:14:16.853Z,100.00
2022-10-17T06:16:18.422Z,100.00
2022-10-17T06:18:20.096Z,100.00
2022-10-17T06:20:21.595Z,100.00
2022-10-17T06:22:23.285Z,100.00
2022-10-17T06:24:26.652Z,100.00
2022-10-17T06:26:28.207Z,100.00
2022-10-17T06:28:30.421Z,100.00
2022-10-17T06:30:32.061Z,100.00
2022-10-17T06:32:33.528Z,100.00
2022-10-17T06:34:35.369Z,100.00
2022-10-17T06:36:36.976Z,100.00
2022-10-17T06:38:38.682Z,100.00
2022-10-17T06:40:41.558Z,100.00
2022-10-17T06:42:43.512Z,100.00
2022-10-17T06:44:45.037Z,100.00
2022-10-17T06:46:46.653Z,100.00
2022-10-17T06:48:48.169Z,100.00
2022-10-17T06:50:49.681Z,100.00
2022-10-17T06:52:51.667Z,100.00
2022-10-17T06:54:53.325Z,100.00
2022-10-17T06:56:56.479Z,100.00
2022-10-17T06:58:58.004Z,100.00
2022-10-17T07:01:00.972Z,100.00
2022-10-17T07:03:03.192Z,100.00
2022-10-17T07:05:05.403Z,100.00
2022-10-17T07:07:06.877Z,100.00
2022-10-17T07:09:08.357Z,100.00
2022-10-17T07:11:10.433Z,100.00
2022-10-17T07:13:13.491Z,100.00
2022-10-17T07:15:15.194Z,100.00
2022-10-17T07:17:17.326Z,100.00
2022-10-17T07:19:18.841Z,100.00
2022-10-17T07:21:20.731Z,100.00
2022-10-17T07:23:23.305Z,100.00
2022-10-17T07:25:25.380Z,100.00
2022-10-17T07:27:27.095Z,100.00
2022-10-17T07:29:30.149Z,100.00
2022-10-17T07:31:31.806Z,100.00
2022-10-17T07:33:33.413Z,100.00
2022-10-17T07:35:34.921Z,100.00
2022-10-17T07:37:36.554Z,100.00
2022-10-17T07:39:38.004Z,100.00
2022-10-17T07:41:39.474Z,100.00
2022-10-17T07:43:40.987Z,100.00
2022-10-17T07:45:43.829Z,100.00
2022-10-17T07:47:45.877Z,100.00
2022-10-17T07:49:47.331Z,100.00
2022-10-17T07:51:48.809Z,100.00
2022-10-17T07:53:50.302Z,100.00
2022-10-17T07:55:51.790Z,100.00
2022-10-17T07:57:53.246Z,100.00
2022-10-17T07:59:54.845Z,100.00
2022-10-17T08:01:57.893Z,100.00
2022-10-17T08:03:59.624Z,100.00
2022-10-17T08:06:02.236Z,100.00
2022-10-17T08:08:03.956Z,100.00
2022-10-17T08:10:06.294Z,100.00
2022-10-17T08:12:07.968Z,100.00
2022-10-17T08:14:09.893Z,100.00
2022-10-17T08:16:13.235Z,100.00
2022-10-17T08:18:16.214Z,100.00
2022-10-17T08:20:18.202Z,100.00
2022-10-17T08:22:19.754Z,100.00
2022-10-17T08:24:21.518Z,100.00
2022-10-17T08:26:23.126Z,100.00
2022-10-17T08:28:24.604Z,100.00
2022-10-17T08:30:26.165Z,100.00
2022-10-17T08:32:29.293Z,100.00
2022-10-17T08:34:32.338Z,100.00
2022-10-17T08:36:34.007Z,100.00
2022-10-17T08:38:37.614Z,100.00
2022-10-17T08:40:40.010Z,100.00
2022-10-17T08:43:06.055Z,100.00
2022-10-17T08:45:16.865Z,100.00
2022-10-17T08:47:24.301Z,100.00
2022-10-17T08:49:33.518Z,100.00
2022-10-17T08:51:47.762Z,98.59
2022-10-17T08:53:54.255Z,97.70
2022-10-17T08:55:56.446Z,97.43
2022-10-17T08:57:57.910Z,95.61
2022-10-17T08:59:59.457Z,94.97
2022-10-17T09:02:08.786Z,95.22
2022-10-17T09:04:33.797Z,93.95
2022-10-17T09:06:38.322Z,94.39
2022-10-17T09:08:51.165Z,93.67
2022-10-17T09:10:57.507Z,92.87
2022-10-17T09:13:10.312Z,91.81
2022-10-17T09:15:41.236Z,92.74
2022-10-17T09:17:50.924Z,90.00
2022-10-17T09:19:59.741Z,89.93
2022-10-17T09:22:06.421Z,89.80
2022-10-17T09:24:17.724Z,88.97
2022-10-17T09:26:19.194Z,89.03
2022-10-17T09:28:25.095Z,89.58
2022-10-17T09:30:45.076Z,90.19
2022-10-17T09:32:47.372Z,89.40
2022-10-17T09:34:49.418Z,88.54
2022-10-17T09:36:51.698Z,88.89
2022-10-17T09:38:55.649Z,87.99
2022-10-17T09:41:01.163Z,87.97
2022-10-17T09:43:06.819Z,88.70
2022-10-17T09:45:17.832Z,87.81
2022-10-17T09:47:25.809Z,86.06
2022-10-17T09:49:32.451Z,86.68
2022-10-17T09:51:34.150Z,83.75
2022-10-17T09:53:38.972Z,85.04
2022-10-17T09:55:42.827Z,83.69
2022-10-17T09:57:59.317Z,83.61
2022-10-17T10:00:05.804Z,82.85
2022-10-17T10:02:09.675Z,80.79
2022-10-17T10:04:13.694Z,81.01
2022-10-17T10:06:17.378Z,79.32
2022-10-17T10:08:19.691Z,79.81
2022-10-17T10:10:29.801Z,79.14
2022-10-17T10:12:33.426Z,80.95
2022-10-17T10:14:37.812Z,78.32
2022-10-17T10:16:43.695Z,77.43
2022-10-17T10:18:47.492Z,77.96
2022-10-17T10:21:04.400Z,76.59
2022-10-17T10:23:15.290Z,75.79
2022-10-17T10:25:18.067Z,76.32
2022-10-17T10:27:19.958Z,76.69
2022-10-17T10:29:30.448Z,75.30
2022-10-17T10:31:36.795Z,75.59
2022-10-17T10:33:47.019Z,75.82
2022-10-17T10:35:57.204Z,75.52
2022-10-17T10:38:01.069Z,74.22
2022-10-17T10:40:04.769Z,73.92
2022-10-17T10:42:17.139Z,73.92
2022-10-17T10:44:23.564Z,73.43
2022-10-17T10:46:27.762Z,73.06
2022-10-17T10:48:34.825Z,73.74
2022-10-17T10:50:45.036Z,72.23
2022-10-17T10:52:54.093Z,72.35
2022-10-17T10:55:03.618Z,71.53
2022-10-17T10:57:10.853Z,71.97
2022-10-17T10:59:18.072Z,71.01
2022-10-17T11:01:26.193Z,70.06
2022-10-17T11:03:36.072Z,69.61
2022-10-17T11:05:43.925Z,69.13
2022-10-17T11:07:52.532Z,69.23
2022-10-17T11:10:00.674Z,68.97
2022-10-17T11:12:11.076Z,69.03
2022-10-17T11:14:18.127Z,68.80
2022-10-17T11:16:28.911Z,68.84
2022-10-17T11:18:39.232Z,69.15
2022-10-17T11:20:50.499Z,68.24
2022-10-17T11:22:55.779Z,68.04
2022-10-17T11:25:00.483Z,67.73
2022-10-17T11:27:04.852Z,67.27
2022-10-17T11:29:06.625Z,67.61
2022-10-17T11:31:12.444Z,68.30
2022-10-17T11:33:20.124Z,66.82
2022-10-17T11:35:26.331Z,67.23
2022-10-17T11:37:31.750Z,67.59
2022-10-17T11:39:41.982Z,68.38
2022-10-17T11:41:48.649Z,68.99
2022-10-17T11:43:54.679Z,68.69
2022-10-17T11:46:00.650Z,67.55
2022-10-17T11:48:06.174Z,67.52
2022-10-17T11:52:56.135Z,66.66
2022-10-17T11:55:01.936Z,68.40
2022-10-17T11:57:16.294Z,68.09
2022-10-17T11:59:40.510Z,67.70
2022-10-17T12:01:47.127Z,68.06
2022-10-17T12:04:01.001Z,67.57
2022-10-17T12:06:11.861Z,67.80
2022-10-17T12:08:22.976Z,65.09
2022-10-17T12:10:34.971Z,65.07
2022-10-17T12:12:36.492Z,64.38
2022-10-17T12:14:41.464Z,65.22
2022-10-17T12:16:45.510Z,65.13
2022-10-17T12:18:48.140Z,65.06
2022-10-17T12:20:56.360Z,64.36
2022-10-17T12:23:03.409Z,65.08
2022-10-17T12:25:17.939Z,65.70
2022-10-17T12:27:42.335Z,65.26
2022-10-17T12:29:43.925Z,65.46
2022-10-17T12:31:45.565Z,64.66
2022-10-17T12:33:50.951Z,64.85
2022-10-17T12:36:39.382Z,64.92
2022-10-17T12:38:41.471Z,62.79
2022-10-17T12:40:58.657Z,62.33
2022-10-17T12:43:00.540Z,63.32
2022-10-17T12:45:02.418Z,64.17
2022-10-17T12:47:29.504Z,64.31
2022-10-17T12:49:56.509Z,64.72
2022-10-17T12:52:24.668Z,64.54
2022-10-17T12:54:26.250Z,64.01
2022-10-17T12:56:36.439Z,64.16
2022-10-17T12:58:45.289Z,63.80
2022-10-17T13:01:11.685Z,64.47
2022-10-17T13:03:16.693Z,65.15
2022-10-17T13:05:25.877Z,64.75
2022-10-17T13:07:29.021Z,65.23
2022-10-17T13:09:33.573Z,64.67
2022-10-17T13:11:39.331Z,65.61
2022-10-17T13:13:44.448Z,65.82
2022-10-17T13:15:47.555Z,64.76
2022-10-17T13:17:59.150Z,65.83
2022-10-17T13:20:00.888Z,65.86
2022-10-17T13:22:06.891Z,65.48
2022-10-17T13:24:20.984Z,65.49
2022-10-17T13:26:23.101Z,65.78
2022-10-17T13:28:26.125Z,66.61
2022-10-17T13:30:32.572Z,65.92
2022-10-17T13:32:37.837Z,66.49
2022-10-17T13:34:39.435Z,66.12
2022-10-17T13:36:47.840Z,67.32
2022-10-17T13:38:50.475Z,66.83
2022-10-17T13:40:57.926Z,67.29
2022-10-17T13:43:03.614Z,67.00
2022-10-17T13:45:16.607Z,65.82
2022-10-17T13:47:23.387Z,67.33
2022-10-17T13:49:31.307Z,67.27
2022-10-17T13:51:33.566Z,67.07
2022-10-17T13:53:36.897Z,66.91
2022-10-17T13:55:38.618Z,66.72
2022-10-17T13:57:40.236Z,66.68
2022-10-17T13:59:42.867Z,66.29
2022-10-17T14:01:45.979Z,66.92
2022-10-17T14:03:57.080Z,67.79
2022-10-17T14:06:17.119Z,66.82
2022-10-17T14:08:23.182Z,66.41
2022-10-17T14:10:27.554Z,66.24
2022-10-17T14:12:29.179Z,66.43
2022-10-17T14:14:46.199Z,66.45
2022-10-17T14:16:57.697Z,66.32
2022-10-17T14:18:59.406Z,66.29
2022-10-17T14:23:31.790Z,67.15
2022-10-17T14:25:35.495Z,66.95
2022-10-17T14:27:52.462Z,66.59
2022-10-17T14:29:55.417Z,67.21
2022-10-17T14:32:04.888Z,67.51
2022-10-17T14:34:06.408Z,67.53
2022-10-17T14:36:08.169Z,68.09
2022-10-17T14:38:13.660Z,68.23
2022-10-17T14:40:20.516Z,69.02
2022-10-17T14:42:22.984Z,69.48
2022-10-17T14:44:28.938Z,69.45
2022-10-17T14:46:30.911Z,68.84
2022-10-17T14:48:33.872Z,69.56
2022-10-17T14:50:35.954Z,70.30
2022-10-17T14:52:37.544Z,70.85
2022-10-17T14:54:39.481Z,71.42
2022-10-17T14:56:48.694Z,72.00
2022-10-17T14:58:50.684Z,72.39
2022-10-17T15:00:55.090Z,73.26
2022-10-17T15:02:56.752Z,73.68
2022-10-17T15:05:02.577Z,74.19
2022-10-17T15:07:04.243Z,74.01
2022-10-17T15:09:05.864Z,74.86
2022-10-17T15:11:10.790Z,75.66
2022-10-17T15:13:27.512Z,76.07
2022-10-17T15:15:31.254Z,76.63
2022-10-17T15:17:33.248Z,76.93
2022-10-17T15:19:34.810Z,77.17
2022-10-17T15:21:44.798Z,77.50
2022-10-17T15:23:49.133Z,78.21
2022-10-17T15:25:50.725Z,78.71
2022-10-17T15:27:52.886Z,79.40
2022-10-17T15:29:57.956Z,79.49
2022-10-17T15:31:59.492Z,79.40
2022-10-17T15:34:01.301Z,79.13
2022-10-17T15:36:02.904Z,78.14
2022-10-17T15:38:09.553Z,78.12
2022-10-17T15:40:17.503Z,78.57
2022-10-17T15:42:19.451Z,78.06
2022-10-17T15:44:21.346Z,78.35
2022-10-17T15:46:25.260Z,78.60
2022-10-17T15:48:30.759Z,78.77
2022-10-17T15:50:32.345Z,78.87
2022-10-17T15:52:33.906Z,78.83
2022-10-17T15:54:36.893Z,78.83
2022-10-17T15:56:40.950Z,79.06
2022-10-17T15:58:42.520Z,79.72
2022-10-17T16:00:45.187Z,80.48
2022-10-17T16:02:47.656Z,80.88
2022-10-17T16:04:50.495Z,81.21
2022-10-17T16:06:52.158Z,82.20
2022-10-17T16:08:53.776Z,82.53
2022-10-17T16:10:56.823Z,83.26
2022-10-17T16:12:58.481Z,83.78
2022-10-17T16:15:00.095Z,85.07
2022-10-17T16:17:01.974Z,85.52
2022-10-17T16:19:04.578Z,86.09
2022-10-17T16:21:06.239Z,86.85
2022-10-17T16:23:12.347Z,87.64
2022-10-17T16:25:19.047Z,88.29
2022-10-17T16:27:22.061Z,89.13
2022-10-17T16:29:23.630Z,89.31
2022-10-17T16:31:26.470Z,89.07
2022-10-17T16:33:28.153Z,89.39
2022-10-17T16:35:33.401Z,89.71
2022-10-17T16:37:38.470Z,90.38
2022-10-17T16:39:40.038Z,90.92
2022-10-17T16:41:41.546Z,90.81
2022-10-17T16:43:44.429Z,91.20
2022-10-17T16:45:46.186Z,91.83
2022-10-17T16:47:48.941Z,92.66
2022-10-17T16:49:50.628Z,93.32
2022-10-17T16:51:52.201Z,93.86
2022-10-17T16:53:54.820Z,94.20
2022-10-17T16:56:03.145Z,94.72
2022-10-17T16:58:08.002Z,95.62
2022-10-17T17:00:12.365Z,96.16
2022-10-17T17:02:16.348Z,96.86
2022-10-17T17:04:20.924Z,97.21
2022-10-17T17:06:24.488Z,97.60
2022-10-17T17:08:26.065Z,98.06
2022-10-17T17:10:27.647Z,98.44
2022-10-17T17:12:29.218Z,99.08
2022-10-17T17:14:30.980Z,99.81
2022-10-17T17:16:35.138Z,100.00
2022-10-17T17:18:37.041Z,100.00
2022-10-17T17:20:41.155Z,100.00
2022-10-17T17:22:42.726Z,100.00
2022-10-17T17:24:44.638Z,100.00
2022-10-17T17:26:46.662Z,100.00
2022-10-17T17:28:49.315Z,100.00
2022-10-17T17:30:51.051Z,100.00
2022-10-17T17:32:53.976Z,100.00
2022-10-17T17:34:55.543Z,100.00
2022-10-17T17:36:59.704Z,100.00
2022-10-17T17:39:03.444Z,100.00
2022-10-17T17:41:05.340Z,100.00
2022-10-17T17:43:06.841Z,100.00
2022-10-17T17:45:09.541Z,100.00
2022-10-17T17:47:11.126Z,100.00
2022-10-17T17:49:14.329Z,100.00
2022-10-17T17:51:18.828Z,100.00
2022-10-17T17:53:20.882Z,100.00
2022-10-17T17:55:22.444Z,100.00
2022-10-17T17:57:23.992Z,100.00
2022-10-17T17:59:25.683Z,100.00
2022-10-17T18:01:29.060Z,100.00
2022-10-17T18:03:30.684Z,100.00
2022-10-17T18:05:36.352Z,100.00
2022-10-17T18:07:38.197Z,100.00
2022-10-17T18:09:39.768Z,100.00
2022-10-17T18:11:43.166Z,100.00
2022-10-17T18:13:44.656Z,100.00
2022-10-17T18:15:46.805Z,100.00
2022-10-17T18:17:48.431Z,100.00
2022-10-17T18:19:49.946Z,100.00
2022-10-17T18:21:52.767Z,100.00
2022-10-17T18:23:54.366Z,100.00
2022-10-17T18:25:57.223Z,100.00
2022-10-17T18:27:58.760Z,100.00
2022-10-17T18:30:00.346Z,100.00
2022-10-17T18:32:01.835Z,100.00
2022-10-17T18:34:04.575Z,100.00
2022-10-17T18:36:08.045Z,100.00
2022-10-17T18:38:11.107Z,100.00
2022-10-17T18:40:12.927Z,100.00
2022-10-17T18:42:14.439Z,100.00
2022-10-17T18:44:16.141Z,100.00
2022-10-17T18:46:19.625Z,100.00
2022-10-17T18:48:21.086Z,100.00
2022-10-17T18:50:24.511Z,100.00
2022-10-17T18:52:28.605Z,100.00
2022-10-17T18:54:31.674Z,100.00
2022-10-17T18:56:33.189Z,100.00
2022-10-17T18:58:34.735Z,100.00
2022-10-17T19:00:36.815Z,100.00
2022-10-17T19:02:38.353Z,100.00
2022-10-17T19:04:40.062Z,100.00
2022-10-17T19:06:42.067Z,100.00
2022-10-17T19:08:44.439Z,100.00
2022-10-17T19:10:47.244Z,100.00
2022-10-17T19:12:48.762Z,100.00
2022-10-17T19:14:50.452Z,100.00
2022-10-17T19:16:52.197Z,100.00
2022-10-17T19:18:56.434Z,100.00
2022-10-17T19:21:01.505Z,100.00
2022-10-17T19:23:03.023Z,100.00
2022-10-17T19:25:05.317Z,100.00
2022-10-17T19:27:08.249Z,100.00
2022-10-17T19:29:10.355Z,100.00
2022-10-17T19:31:16.823Z,100.00
2022-10-17T19:33:19.607Z,100.00
2022-10-17T19:35:21.266Z,100.00
2022-10-17T19:37:22.787Z,100.00
2022-10-17T19:39:24.434Z,100.00
2022-10-17T19:41:25.923Z,100.00
2022-10-17T19:43:28.920Z,100.00
2022-10-17T19:45:30.636Z,100.00
2022-10-17T19:47:32.252Z,100.00
2022-10-17T19:49:34.015Z,100.00
2022-10-17T19:51:35.571Z,100.00
2022-10-17T19:53:37.215Z,100.00
2022-10-17T19:55:38.821Z,100.00
2022-10-17T19:57:40.371Z,100.00
2022-10-17T19:59:43.311Z,100.00
2022-10-17T20:01:45.789Z,100.00
2022-10-17T20:03:48.069Z,100.00
2022-10-17T20:05:50.015Z,100.00
2022-10-17T20:07:51.997Z,100.00
2022-10-17T20:09:53.454Z,100.00
2022-10-17T20:11:54.980Z,100.00
2022-10-17T20:13:56.984Z,100.00
2022-10-17T20:15:59.803Z,100.00
2022-10-17T20:18:01.456Z,100.00
2022-10-17T20:20:07.653Z,100.00
2022-10-17T20:22:10.287Z,100.00
2022-10-17T20:24:14.689Z,100.00
2022-10-17T20:26:26.259Z,100.00
2022-10-17T20:28:38.417Z,100.00
2022-10-17T20:30:43.561Z,100.00
2022-10-17T20:32:46.402Z,100.00
2022-10-17T20:34:47.911Z,100.00
2022-10-17T20:36:49.977Z,100.00
2022-10-17T20:38:55.415Z,100.00
2022-10-17T20:41:00.398Z,100.00
2022-10-17T20:43:02.122Z,100.00
2022-10-17T20:45:05.300Z,100.00
2022-10-17T20:47:12.126Z,100.00
2022-10-17T20:49:20.868Z,100.00
2022-10-17T20:51:22.428Z,100.00
2022-10-17T20:53:36.474Z,100.00
2022-10-17T20:55:38.398Z,100.00
2022-10-17T20:57:39.917Z,100.00
2022-10-17T20:59:41.405Z,100.00
2022-10-17T21:01:44.046Z,100.00
2022-10-17T21:03:46.694Z,100.00
2022-10-17T21:05:49.861Z,100.00
2022-10-17T21:07:51.422Z,100.00
2022-10-17T21:09:53.021Z,100.00
2022-10-17T21:11:54.573Z,100.00
2022-10-17T21:13:57.616Z,100.00
2022-10-17T21:16:04.817Z,100.00
2022-10-17T21:18:06.336Z,100.00
2022-10-17T21:20:09.066Z,100.00
2022-10-17T21:22:11.965Z,100.00
2022-10-17T21:24:16.496Z,100.00
2022-10-17T21:26:18.781Z,100.00
2022-10-17T21:28:20.318Z,100.00
2022-10-17T21:30:22.162Z,100.00
2022-10-17T21:32:33.450Z,100.00
2022-10-17T21:34:45.303Z,100.00
2022-10-17T21:36:47.575Z,100.00
2022-10-17T21:38:53.395Z,100.00
2022-10-17T21:40:56.128Z,100.00
2022-10-17T21:42:57.714Z,100.00
2022-10-17T21:44:59.244Z,100.00
2022-10-17T21:47:00.782Z,100.00
2022-10-17T21:49:02.351Z,100.00
2022-10-17T21:51:06.227Z,100.00
2022-10-17T21:53:07.746Z,100.00
2022-10-17T21:55:10.703Z,100.00
2022-10-17T21:57:12.232Z,100.00
2022-10-17T21:59:13.813Z,100.00
2022-10-17T22:01:17.381Z,100.00
2022-10-17T22:03:18.934Z,100.00
2022-10-17T22:05:20.694Z,100.00
2022-10-17T22:07:22.205Z,100.00
2022-10-17T22:09:25.592Z,100.00
2022-10-17T22:11:31.488Z,100.00
2022-10-17T22:13:33.364Z,100.00
2022-10-17T22:15:34.867Z,100.00
2022-10-17T22:17:36.407Z,100.00
2022-10-17T22:19:38.040Z,100.00
2022-10-17T22:21:39.658Z,100.00
2022-10-17T22:23:41.900Z,100.00
2022-10-17T22:25:43.381Z,100.00
2022-10-17T22:27:46.836Z,100.00
2022-10-17T22:29:48.435Z,100.00
2022-10-17T22:31:49.915Z,100.00
2022-10-17T22:33:51.452Z,100.00
2022-10-17T22:35:53.204Z,100.00
2022-10-17T22:37:54.692Z,100.00
2022-10-17T22:39:56.172Z,100.00
2022-10-17T22:41:57.697Z,100.00
2022-10-17T22:44:01.072Z,100.00
2022-10-17T22:46:05.217Z,100.00
2022-10-17T22:48:07.925Z,100.00
2022-10-17T22:50:09.641Z,100.00
2022-10-17T22:52:11.147Z,100.00
2022-10-17T22:54:12.842Z,100.00
2022-10-17T22:56:16.806Z,100.00
2022-10-17T22:58:18.350Z,100.00
2022-10-17T23:00:21.388Z,100.00
2022-10-17T23:02:25.881Z,100.00
2022-10-17T23:04:27.391Z,100.00
2022-10-17T23:06:29.150Z,100.00
2022-10-17T23:08:31.353Z,100.00
2022-10-17T23:10:33.008Z,100.00
2022-10-17T23:12:34.571Z,100.00
2022-10-17T23:14:36.081Z,100.00
2022-10-17T23:16:38.910Z,100.00
2022-10-17T23:18:40.444Z,100.00
2022-10-17T23:20:41.947Z,100.00
2022-10-17T23:22:43.419Z,100.00
2022-10-17T23:24:44.935Z,100.00
2022-10-17T23:26:46.378Z,100.00
2022-10-17T23:28:48.130Z,100.00
2022-10-17T23:30:49.699Z,100.00
2022-10-17T23:32:53.031Z,100.00
2022-10-17T23:34:54.511Z,100.00
2022-10-17T23:36:56.148Z,100.00
2022-10-17T23:38:58.618Z,100.00
2022-10-17T23:41:00.317Z,100.00
2022-10-17T23:43:03.960Z,100.00
2022-10-17T23:45:09.310Z,100.00
2022-10-17T23:47:10.784Z,100.00
2022-10-17T23:49:13.956Z,100.00
2022-10-17T23:51:15.498Z,100.00
2022-10-17T23:53:16.978Z,100.00
2022-10-17T23:55:18.508Z,100.00
2022-10-17T23:57:19.954Z,100.00
2022-10-17T23:59:21.431Z,100.00
